KHOB/HOB METAR and TAF weather

Enter ICAO airport designator
Station Type Date Time Source
KHOB METAR 2020/09/20 01:15 UTC NOAA

KHOB 200115Z AUTO 14007KT 10SM CLR 23/09 A3016 RMK AO2


Station Type Date Time Source
KHOB Decoded METAR 2020/09/20 01:15 UTC NOAA

Hobbs / Lea County, NM, United States (KHOB) 32-41N 103-13W
Sep 19, 2020 - 09:15 PM EDT / 2020.09.20 0115 UTC
Wind: from the SE (140 degrees) at 8 MPH (7 KT):0
Visibility: 10 mile(s):0
Sky conditions: clear
Temperature: 73 F (23 C)
Dew Point: 48 F (9 C)
Relative Humidity: 40%
Pressure (altimeter): 30.16 in. Hg (1021 hPa)
ob: KHOB 200115Z AUTO 14007KT 10SM CLR 23/09 A3016 RMK AO2
cycle: 1

Station Type Date Time Source
KHOB TAF 2020/09/19 18:22 UTC NOAA

TAF KHOB 191720Z 1918/2018 12009KT P6SM SCT050

Example: see airport list